sensor_id;sensor_type;location;lat;lon;timestamp;P1;durP1;ratioP1;P2;durP2;ratioP2
36547;SDS011;22551;52.206;4.856;2024-03-02T00:04:29;0.38;;;0.20;;
36547;SDS011;22551;52.206;4.856;2024-03-02T00:09:31;1.48;;;0.20;;
36547;SDS011;22551;52.206;4.856;2024-03-02T00:14:34;0.05;;;0.05;;
36547;SDS011;22551;52.206;4.856;2024-03-02T00:19:39;0.75;;;0.10;;
36547;SDS011;22551;52.206;4.856;2024-03-02T00:24:42;0.35;;;0.10;;
36547;SDS011;22551;52.206;4.856;2024-03-02T00:29:44;0.10;;;0.08;;
36547;SDS011;22551;52.206;4.856;2024-03-02T00:34:47;0.90;;;0.13;;
36547;SDS011;22551;52.206;4.856;2024-03-02T00:39:50;0.00;;;0.00;;
36547;SDS011;22551;52.206;4.856;2024-03-02T00:44:52;0.20;;;0.10;;
36547;SDS011;22551;52.206;4.856;2024-03-02T00:49:55;0.40;;;0.10;;
36547;SDS011;22551;52.206;4.856;2024-03-02T00:54:58;0.10;;;0.00;;
36547;SDS011;22551;52.206;4.856;2024-03-02T01:00:00;0.43;;;0.10;;
36547;SDS011;22551;52.206;4.856;2024-03-02T01:05:05;0.25;;;0.10;;
36547;SDS011;22551;52.206;4.856;2024-03-02T01:10:09;0.20;;;0.20;;
36547;SDS011;22551;52.206;4.856;2024-03-02T01:15:11;0.55;;;0.28;;
36547;SDS011;22551;52.206;4.856;2024-03-02T01:20:15;0.20;;;0.13;;
36547;SDS011;22551;52.206;4.856;2024-03-02T01:25:17;0.50;;;0.40;;
36547;SDS011;22551;52.206;4.856;2024-03-02T01:30:20;1.10;;;0.68;;
36547;SDS011;22551;52.206;4.856;2024-03-02T01:35:24;1.40;;;0.80;;
36547;SDS011;22551;52.206;4.856;2024-03-02T01:40:26;1.73;;;0.88;;
36547;SDS011;22551;52.206;4.856;2024-03-02T01:45:29;2.35;;;0.70;;
36547;SDS011;22551;52.206;4.856;2024-03-02T01:50:34;1.80;;;0.90;;
36547;SDS011;22551;52.206;4.856;2024-03-02T01:55:37;0.80;;;0.80;;
36547;SDS011;22551;52.206;4.856;2024-03-02T02:00:40;1.23;;;0.50;;
36547;SDS011;22551;52.206;4.856;2024-03-02T02:05:43;2.67;;;0.63;;
36547;SDS011;22551;52.206;4.856;2024-03-02T02:10:46;2.95;;;0.57;;
36547;SDS011;22551;52.206;4.856;2024-03-02T02:15:48;0.50;;;0.40;;
36547;SDS011;22551;52.206;4.856;2024-03-02T02:20:52;0.30;;;0.30;;
36547;SDS011;22551;52.206;4.856;2024-03-02T02:25:56;0.73;;;0.15;;
36547;SDS011;22551;52.206;4.856;2024-03-02T02:30:58;0.32;;;0.20;;
36547;SDS011;22551;52.206;4.856;2024-03-02T02:36:00;0.75;;;0.30;;
36547;SDS011;22551;52.206;4.856;2024-03-02T02:41:04;0.40;;;0.10;;
36547;SDS011;22551;52.206;4.856;2024-03-02T02:46:07;0.73;;;0.40;;
36547;SDS011;22551;52.206;4.856;2024-03-02T02:51:09;0.10;;;0.10;;
36547;SDS011;22551;52.206;4.856;2024-03-02T02:56:12;0.40;;;0.20;;
36547;SDS011;22551;52.206;4.856;2024-03-02T03:01:15;1.30;;;0.20;;
36547;SDS011;22551;52.206;4.856;2024-03-02T03:06:18;0.63;;;0.40;;
36547;SDS011;22551;52.206;4.856;2024-03-02T03:11:21;2.05;;;0.30;;
36547;SDS011;22551;52.206;4.856;2024-03-02T03:16:26;0.93;;;0.60;;
36547;SDS011;22551;52.206;4.856;2024-03-02T03:21:28;1.10;;;0.70;;
36547;SDS011;22551;52.206;4.856;2024-03-02T03:26:32;0.82;;;0.50;;
36547;SDS011;22551;52.206;4.856;2024-03-02T03:31:37;1.23;;;0.52;;
36547;SDS011;22551;52.206;4.856;2024-03-02T03:36:39;0.32;;;0.20;;
36547;SDS011;22551;52.206;4.856;2024-03-02T03:41:42;2.17;;;0.20;;
36547;SDS011;22551;52.206;4.856;2024-03-02T03:46:44;0.50;;;0.30;;
36547;SDS011;22551;52.206;4.856;2024-03-02T03:51:46;0.85;;;0.30;;
36547;SDS011;22551;52.206;4.856;2024-03-02T03:56:51;0.70;;;0.20;;
36547;SDS011;22551;52.206;4.856;2024-03-02T04:01:53;0.82;;;0.40;;
36547;SDS011;22551;52.206;4.856;2024-03-02T04:06:55;1.40;;;0.43;;
36547;SDS011;22551;52.206;4.856;2024-03-02T04:11:59;0.70;;;0.20;;
36547;SDS011;22551;52.206;4.856;2024-03-02T04:17:01;0.30;;;0.22;;
36547;SDS011;22551;52.206;4.856;2024-03-02T04:22:03;0.15;;;0.10;;
36547;SDS011;22551;52.206;4.856;2024-03-02T04:27:08;2.25;;;0.32;;
36547;SDS011;22551;52.206;4.856;2024-03-02T04:32:10;0.52;;;0.30;;
36547;SDS011;22551;52.206;4.856;2024-03-02T04:37:13;1.73;;;0.40;;
36547;SDS011;22551;52.206;4.856;2024-03-02T04:42:17;1.38;;;0.50;;
36547;SDS011;22551;52.206;4.856;2024-03-02T04:47:19;1.10;;;0.30;;
36547;SDS011;22551;52.206;4.856;2024-03-02T04:52:21;2.28;;;0.40;;
36547;SDS011;22551;52.206;4.856;2024-03-02T04:57:25;1.90;;;0.25;;
36547;SDS011;22551;52.206;4.856;2024-03-02T05:02:27;0.60;;;0.22;;
36547;SDS011;22551;52.206;4.856;2024-03-02T05:07:29;2.00;;;0.30;;
36547;SDS011;22551;52.206;4.856;2024-03-02T05:12:32;1.20;;;0.40;;
36547;SDS011;22551;52.206;4.856;2024-03-02T05:17:56;1.35;;;0.28;;
36547;SDS011;22551;52.206;4.856;2024-03-02T05:22:59;0.77;;;0.40;;
36547;SDS011;22551;52.206;4.856;2024-03-02T05:28:03;3.55;;;0.50;;
36547;SDS011;22551;52.206;4.856;2024-03-02T05:33:06;1.07;;;0.40;;
36547;SDS011;22551;52.206;4.856;2024-03-02T05:38:08;1.02;;;0.20;;
36547;SDS011;22551;52.206;4.856;2024-03-02T05:43:15;0.28;;;0.28;;
36547;SDS011;22551;52.206;4.856;2024-03-02T05:48:18;0.70;;;0.30;;
36547;SDS011;22551;52.206;4.856;2024-03-02T05:53:20;0.77;;;0.30;;
36547;SDS011;22551;52.206;4.856;2024-03-02T06:04:01;2.55;;;0.65;;
36547;SDS011;22551;52.206;4.856;2024-03-02T06:09:04;0.77;;;0.30;;
36547;SDS011;22551;52.206;4.856;2024-03-02T06:14:08;0.75;;;0.45;;
36547;SDS011;22551;52.206;4.856;2024-03-02T06:19:13;1.25;;;0.20;;
36547;SDS011;22551;52.206;4.856;2024-03-02T06:24:15;0.45;;;0.17;;
36547;SDS011;22551;52.206;4.856;2024-03-02T06:29:18;1.27;;;0.50;;
36547;SDS011;22551;52.206;4.856;2024-03-02T06:34:21;0.55;;;0.25;;
36547;SDS011;22551;52.206;4.856;2024-03-02T06:39:23;0.57;;;0.30;;
36547;SDS011;22551;52.206;4.856;2024-03-02T06:44:26;0.35;;;0.22;;
36547;SDS011;22551;52.206;4.856;2024-03-02T06:49:30;0.63;;;0.28;;
36547;SDS011;22551;52.206;4.856;2024-03-02T06:54:32;1.92;;;0.47;;
36547;SDS011;22551;52.206;4.856;2024-03-02T06:59:35;1.52;;;0.22;;
36547;SDS011;22551;52.206;4.856;2024-03-02T07:04:38;0.25;;;0.10;;
36547;SDS011;22551;52.206;4.856;2024-03-02T07:09:40;2.08;;;0.40;;
36547;SDS011;22551;52.206;4.856;2024-03-02T07:14:42;4.22;;;0.40;;
36547;SDS011;22551;52.206;4.856;2024-03-02T07:20:13;4.22;;;0.80;;
36547;SDS011;22551;52.206;4.856;2024-03-02T07:25:15;2.10;;;0.30;;
36547;SDS011;22551;52.206;4.856;2024-03-02T07:30:17;0.47;;;0.30;;
36547;SDS011;22551;52.206;4.856;2024-03-02T07:35:21;0.85;;;0.40;;
36547;SDS011;22551;52.206;4.856;2024-03-02T07:40:26;1.02;;;0.30;;
36547;SDS011;22551;52.206;4.856;2024-03-02T07:45:30;4.07;;;0.57;;
36547;SDS011;22551;52.206;4.856;2024-03-02T07:50:33;3.60;;;0.55;;
36547;SDS011;22551;52.206;4.856;2024-03-02T07:55:35;3.95;;;0.45;;
36547;SDS011;22551;52.206;4.856;2024-03-02T08:00:38;0.80;;;0.30;;
36547;SDS011;22551;52.206;4.856;2024-03-02T08:05:42;0.88;;;0.30;;
36547;SDS011;22551;52.206;4.856;2024-03-02T08:10:46;1.77;;;0.43;;
36547;SDS011;22551;52.206;4.856;2024-03-02T08:15:49;1.65;;;0.47;;
36547;SDS011;22551;52.206;4.856;2024-03-02T08:20:52;1.20;;;0.30;;
36547;SDS011;22551;52.206;4.856;2024-03-02T08:25:56;1.48;;;0.30;;
36547;SDS011;22551;52.206;4.856;2024-03-02T08:31:00;2.00;;;0.20;;
36547;SDS011;22551;52.206;4.856;2024-03-02T08:36:04;2.20;;;0.38;;
36547;SDS011;22551;52.206;4.856;2024-03-02T08:41:09;1.40;;;0.40;;
36547;SDS011;22551;52.206;4.856;2024-03-02T08:46:20;1.42;;;0.40;;
36547;SDS011;22551;52.206;4.856;2024-03-02T08:51:29;3.30;;;0.35;;
36547;SDS011;22551;52.206;4.856;2024-03-02T08:56:31;3.42;;;0.30;;
36547;SDS011;22551;52.206;4.856;2024-03-02T09:01:34;2.22;;;0.40;;
36547;SDS011;22551;52.206;4.856;2024-03-02T09:06:43;1.00;;;0.13;;
36547;SDS011;22551;52.206;4.856;2024-03-02T09:11:46;2.50;;;0.50;;
36547;SDS011;22551;52.206;4.856;2024-03-02T09:16:48;2.83;;;0.50;;
36547;SDS011;22551;52.206;4.856;2024-03-02T09:21:51;1.15;;;0.45;;
36547;SDS011;22551;52.206;4.856;2024-03-02T09:31:57;2.58;;;0.30;;
36547;SDS011;22551;52.206;4.856;2024-03-02T09:37:03;4.40;;;0.40;;
36547;SDS011;22551;52.206;4.856;2024-03-02T09:42:06;8.18;;;0.40;;
36547;SDS011;22551;52.206;4.856;2024-03-02T09:47:08;1.40;;;0.60;;
36547;SDS011;22551;52.206;4.856;2024-03-02T09:52:12;5.82;;;0.60;;
36547;SDS011;22551;52.206;4.856;2024-03-02T09:57:16;2.38;;;0.65;;
36547;SDS011;22551;52.206;4.856;2024-03-02T10:02:18;4.00;;;1.25;;
36547;SDS011;22551;52.206;4.856;2024-03-02T10:07:22;1.90;;;0.63;;
36547;SDS011;22551;52.206;4.856;2024-03-02T10:12:26;2.20;;;0.50;;
36547;SDS011;22551;52.206;4.856;2024-03-02T10:17:30;3.70;;;0.47;;
36547;SDS011;22551;52.206;4.856;2024-03-02T10:22:34;4.70;;;0.55;;
36547;SDS011;22551;52.206;4.856;2024-03-02T10:27:36;5.80;;;0.75;;
36547;SDS011;22551;52.206;4.856;2024-03-02T10:32:38;2.25;;;0.38;;
36547;SDS011;22551;52.206;4.856;2024-03-02T10:37:42;2.97;;;0.50;;
36547;SDS011;22551;52.206;4.856;2024-03-02T10:42:44;3.63;;;0.70;;
36547;SDS011;22551;52.206;4.856;2024-03-02T10:47:47;10.32;;;2.13;;
36547;SDS011;22551;52.206;4.856;2024-03-02T10:52:52;3.20;;;0.50;;
36547;SDS011;22551;52.206;4.856;2024-03-02T10:57:54;0.73;;;0.40;;
36547;SDS011;22551;52.206;4.856;2024-03-02T11:02:58;1.00;;;0.38;;
36547;SDS011;22551;52.206;4.856;2024-03-02T11:08:11;2.78;;;0.60;;
36547;SDS011;22551;52.206;4.856;2024-03-02T11:13:17;2.55;;;0.35;;
36547;SDS011;22551;52.206;4.856;2024-03-02T11:18:26;4.97;;;0.40;;
36547;SDS011;22551;52.206;4.856;2024-03-02T11:23:32;5.88;;;0.50;;
36547;SDS011;22551;52.206;4.856;2024-03-02T11:28:35;1.15;;;0.50;;
36547;SDS011;22551;52.206;4.856;2024-03-02T11:33:39;0.50;;;0.30;;
36547;SDS011;22551;52.206;4.856;2024-03-02T11:38:43;3.78;;;0.60;;
36547;SDS011;22551;52.206;4.856;2024-03-02T11:43:46;2.13;;;0.20;;
36547;SDS011;22551;52.206;4.856;2024-03-02T11:48:49;2.65;;;0.55;;
36547;SDS011;22551;52.206;4.856;2024-03-02T11:53:52;3.03;;;0.32;;
36547;SDS011;22551;52.206;4.856;2024-03-02T11:58:57;1.65;;;0.30;;
36547;SDS011;22551;52.206;4.856;2024-03-02T12:03:59;2.83;;;0.28;;
36547;SDS011;22551;52.206;4.856;2024-03-02T12:09:06;3.47;;;0.38;;
36547;SDS011;22551;52.206;4.856;2024-03-02T12:14:12;7.07;;;0.93;;
36547;SDS011;22551;52.206;4.856;2024-03-02T12:19:14;1.23;;;0.50;;
36547;SDS011;22551;52.206;4.856;2024-03-02T12:24:20;0.45;;;0.28;;
36547;SDS011;22551;52.206;4.856;2024-03-02T12:29:23;3.53;;;0.47;;
36547;SDS011;22551;52.206;4.856;2024-03-02T12:39:31;4.13;;;0.32;;
36547;SDS011;22551;52.206;4.856;2024-03-02T12:44:35;1.95;;;0.70;;
36547;SDS011;22551;52.206;4.856;2024-03-02T12:49:39;1.83;;;0.50;;
36547;SDS011;22551;52.206;4.856;2024-03-02T12:54:43;1.85;;;0.52;;
36547;SDS011;22551;52.206;4.856;2024-03-02T12:59:49;4.78;;;0.20;;
36547;SDS011;22551;52.206;4.856;2024-03-02T13:04:52;3.30;;;0.47;;
36547;SDS011;22551;52.206;4.856;2024-03-02T13:09:57;1.17;;;0.30;;
36547;SDS011;22551;52.206;4.856;2024-03-02T13:14:59;1.83;;;0.30;;
36547;SDS011;22551;52.206;4.856;2024-03-02T13:20:06;4.18;;;0.55;;
36547;SDS011;22551;52.206;4.856;2024-03-02T13:25:11;3.90;;;1.00;;
36547;SDS011;22551;52.206;4.856;2024-03-02T13:30:14;1.50;;;0.28;;
36547;SDS011;22551;52.206;4.856;2024-03-02T13:35:17;1.88;;;1.00;;
36547;SDS011;22551;52.206;4.856;2024-03-02T13:40:20;1.75;;;0.30;;
36547;SDS011;22551;52.206;4.856;2024-03-02T13:45:31;4.65;;;0.43;;
36547;SDS011;22551;52.206;4.856;2024-03-02T13:50:33;1.88;;;0.90;;
36547;SDS011;22551;52.206;4.856;2024-03-02T13:55:38;0.77;;;0.30;;
36547;SDS011;22551;52.206;4.856;2024-03-02T14:00:41;0.93;;;0.40;;
36547;SDS011;22551;52.206;4.856;2024-03-02T14:10:51;5.30;;;1.20;;
36547;SDS011;22551;52.206;4.856;2024-03-02T14:15:54;3.30;;;0.75;;
36547;SDS011;22551;52.206;4.856;2024-03-02T14:20:58;4.05;;;0.40;;
36547;SDS011;22551;52.206;4.856;2024-03-02T14:26:04;2.40;;;0.15;;
36547;SDS011;22551;52.206;4.856;2024-03-02T14:31:06;4.65;;;1.48;;
36547;SDS011;22551;52.206;4.856;2024-03-02T14:36:08;4.18;;;0.80;;
36547;SDS011;22551;52.206;4.856;2024-03-02T14:41:12;3.97;;;0.70;;
36547;SDS011;22551;52.206;4.856;2024-03-02T14:46:14;5.50;;;1.40;;
36547;SDS011;22551;52.206;4.856;2024-03-02T14:51:16;3.30;;;1.00;;
36547;SDS011;22551;52.206;4.856;2024-03-02T14:56:20;3.85;;;0.52;;
36547;SDS011;22551;52.206;4.856;2024-03-02T15:01:22;4.50;;;0.85;;
36547;SDS011;22551;52.206;4.856;2024-03-02T15:06:24;12.52;;;2.63;;
36547;SDS011;22551;52.206;4.856;2024-03-02T15:11:28;5.22;;;1.08;;
36547;SDS011;22551;52.206;4.856;2024-03-02T15:16:30;1.67;;;0.40;;
36547;SDS011;22551;52.206;4.856;2024-03-02T15:21:32;2.85;;;0.60;;
36547;SDS011;22551;52.206;4.856;2024-03-02T15:26:36;2.28;;;1.33;;
36547;SDS011;22551;52.206;4.856;2024-03-02T15:31:38;1.52;;;0.80;;
36547;SDS011;22551;52.206;4.856;2024-03-02T15:36:40;2.97;;;1.02;;
36547;SDS011;22551;52.206;4.856;2024-03-02T15:41:44;7.72;;;1.70;;
36547;SDS011;22551;52.206;4.856;2024-03-02T15:46:46;3.53;;;1.55;;
36547;SDS011;22551;52.206;4.856;2024-03-02T15:51:49;1.50;;;0.85;;
36547;SDS011;22551;52.206;4.856;2024-03-02T15:56:52;2.42;;;1.17;;
36547;SDS011;22551;52.206;4.856;2024-03-02T16:01:54;1.67;;;0.90;;
36547;SDS011;22551;52.206;4.856;2024-03-02T16:06:58;4.55;;;0.82;;
36547;SDS011;22551;52.206;4.856;2024-03-02T16:12:01;2.70;;;0.95;;
36547;SDS011;22551;52.206;4.856;2024-03-02T16:17:04;6.90;;;2.10;;
36547;SDS011;22551;52.206;4.856;2024-03-02T16:22:06;5.05;;;1.00;;
36547;SDS011;22551;52.206;4.856;2024-03-02T16:27:12;6.25;;;0.98;;
36547;SDS011;22551;52.206;4.856;2024-03-02T16:32:14;5.10;;;1.05;;
36547;SDS011;22551;52.206;4.856;2024-03-02T16:37:19;2.20;;;0.82;;
36547;SDS011;22551;52.206;4.856;2024-03-02T16:42:26;1.25;;;0.60;;
36547;SDS011;22551;52.206;4.856;2024-03-02T16:47:31;3.80;;;0.80;;
36547;SDS011;22551;52.206;4.856;2024-03-02T16:52:33;1.45;;;0.77;;
36547;SDS011;22551;52.206;4.856;2024-03-02T16:57:42;2.80;;;0.82;;
36547;SDS011;22551;52.206;4.856;2024-03-02T17:02:47;4.05;;;0.90;;
36547;SDS011;22551;52.206;4.856;2024-03-02T17:07:49;1.73;;;0.77;;
36547;SDS011;22551;52.206;4.856;2024-03-02T17:12:52;1.35;;;0.45;;
36547;SDS011;22551;52.206;4.856;2024-03-02T17:17:55;2.00;;;0.70;;
36547;SDS011;22551;52.206;4.856;2024-03-02T17:22:57;1.77;;;0.75;;
36547;SDS011;22551;52.206;4.856;2024-03-02T17:33:24;1.52;;;0.50;;
36547;SDS011;22551;52.206;4.856;2024-03-02T17:38:26;3.08;;;0.70;;
36547;SDS011;22551;52.206;4.856;2024-03-02T17:43:30;2.00;;;0.70;;
36547;SDS011;22551;52.206;4.856;2024-03-02T17:48:32;2.88;;;1.13;;
36547;SDS011;22551;52.206;4.856;2024-03-02T17:53:34;1.95;;;0.88;;
36547;SDS011;22551;52.206;4.856;2024-03-02T17:58:38;3.38;;;1.25;;
36547;SDS011;22551;52.206;4.856;2024-03-02T18:03:42;14.77;;;5.90;;
36547;SDS011;22551;52.206;4.856;2024-03-02T18:08:44;1.50;;;1.07;;
36547;SDS011;22551;52.206;4.856;2024-03-02T18:13:50;1.67;;;0.93;;
36547;SDS011;22551;52.206;4.856;2024-03-02T18:18:53;3.40;;;1.20;;
36547;SDS011;22551;52.206;4.856;2024-03-02T18:23:55;2.28;;;0.88;;
36547;SDS011;22551;52.206;4.856;2024-03-02T18:28:58;2.22;;;1.20;;
36547;SDS011;22551;52.206;4.856;2024-03-02T18:34:01;2.20;;;1.15;;
36547;SDS011;22551;52.206;4.856;2024-03-02T18:39:04;4.20;;;1.00;;
36547;SDS011;22551;52.206;4.856;2024-03-02T18:44:08;4.25;;;1.23;;
36547;SDS011;22551;52.206;4.856;2024-03-02T18:49:10;2.45;;;1.05;;
36547;SDS011;22551;52.206;4.856;2024-03-02T18:54:12;1.05;;;0.60;;
36547;SDS011;22551;52.206;4.856;2024-03-02T18:59:17;4.40;;;1.05;;
36547;SDS011;22551;52.206;4.856;2024-03-02T19:04:19;2.05;;;1.08;;
36547;SDS011;22551;52.206;4.856;2024-03-02T19:09:21;2.22;;;1.23;;
36547;SDS011;22551;52.206;4.856;2024-03-02T19:14:25;3.28;;;0.90;;
36547;SDS011;22551;52.206;4.856;2024-03-02T19:19:27;1.45;;;0.93;;
36547;SDS011;22551;52.206;4.856;2024-03-02T19:24:29;4.22;;;1.50;;
36547;SDS011;22551;52.206;4.856;2024-03-02T19:29:36;3.40;;;1.55;;
36547;SDS011;22551;52.206;4.856;2024-03-02T19:34:38;11.48;;;3.05;;
36547;SDS011;22551;52.206;4.856;2024-03-02T19:39:40;5.80;;;2.45;;
36547;SDS011;22551;52.206;4.856;2024-03-02T19:44:44;4.65;;;2.10;;
36547;SDS011;22551;52.206;4.856;2024-03-02T19:49:46;3.78;;;2.05;;
36547;SDS011;22551;52.206;4.856;2024-03-02T19:54:48;4.53;;;2.13;;
36547;SDS011;22551;52.206;4.856;2024-03-02T19:59:52;8.55;;;4.18;;
36547;SDS011;22551;52.206;4.856;2024-03-02T20:04:57;4.57;;;2.35;;
36547;SDS011;22551;52.206;4.856;2024-03-02T20:09:59;5.70;;;2.55;;
36547;SDS011;22551;52.206;4.856;2024-03-02T20:15:03;4.63;;;2.28;;
36547;SDS011;22551;52.206;4.856;2024-03-02T20:20:07;4.50;;;2.33;;
36547;SDS011;22551;52.206;4.856;2024-03-02T20:25:09;2.05;;;1.40;;
36547;SDS011;22551;52.206;4.856;2024-03-02T20:30:14;5.28;;;2.83;;
36547;SDS011;22551;52.206;4.856;2024-03-02T20:35:17;4.28;;;2.33;;
36547;SDS011;22551;52.206;4.856;2024-03-02T20:40:19;2.80;;;2.05;;
36547;SDS011;22551;52.206;4.856;2024-03-02T20:45:23;3.78;;;2.13;;
36547;SDS011;22551;52.206;4.856;2024-03-02T20:50:25;3.70;;;2.47;;
36547;SDS011;22551;52.206;4.856;2024-03-02T20:55:27;5.47;;;2.22;;
36547;SDS011;22551;52.206;4.856;2024-03-02T21:00:31;3.55;;;2.22;;
36547;SDS011;22551;52.206;4.856;2024-03-02T21:05:35;2.72;;;2.13;;
36547;SDS011;22551;52.206;4.856;2024-03-02T21:10:37;3.25;;;2.10;;
36547;SDS011;22551;52.206;4.856;2024-03-02T21:15:41;3.80;;;2.55;;
36547;SDS011;22551;52.206;4.856;2024-03-02T21:20:43;3.47;;;1.92;;
36547;SDS011;22551;52.206;4.856;2024-03-02T21:25:48;3.80;;;2.95;;
36547;SDS011;22551;52.206;4.856;2024-03-02T21:30:54;4.30;;;2.10;;
36547;SDS011;22551;52.206;4.856;2024-03-02T21:35:56;5.40;;;1.67;;
36547;SDS011;22551;52.206;4.856;2024-03-02T21:40:59;4.10;;;2.40;;
36547;SDS011;22551;52.206;4.856;2024-03-02T21:46:02;4.43;;;2.55;;
36547;SDS011;22551;52.206;4.856;2024-03-02T21:51:05;3.75;;;2.25;;
36547;SDS011;22551;52.206;4.856;2024-03-02T21:56:08;7.70;;;3.65;;
36547;SDS011;22551;52.206;4.856;2024-03-02T22:01:13;8.10;;;2.70;;
36547;SDS011;22551;52.206;4.856;2024-03-02T22:06:15;2.67;;;2.20;;
36547;SDS011;22551;52.206;4.856;2024-03-02T22:11:17;3.78;;;2.30;;
36547;SDS011;22551;52.206;4.856;2024-03-02T22:16:21;4.18;;;2.28;;
36547;SDS011;22551;52.206;4.856;2024-03-02T22:21:25;3.97;;;2.05;;
36547;SDS011;22551;52.206;4.856;2024-03-02T22:26:28;3.40;;;2.30;;
36547;SDS011;22551;52.206;4.856;2024-03-02T22:31:31;3.13;;;2.10;;
36547;SDS011;22551;52.206;4.856;2024-03-02T22:36:33;3.25;;;1.92;;
36547;SDS011;22551;52.206;4.856;2024-03-02T22:41:35;3.00;;;1.83;;
36547;SDS011;22551;52.206;4.856;2024-03-02T22:46:40;5.57;;;2.65;;
36547;SDS011;22551;52.206;4.856;2024-03-02T22:51:43;4.75;;;2.30;;
36547;SDS011;22551;52.206;4.856;2024-03-02T22:56:45;6.93;;;2.30;;
36547;SDS011;22551;52.206;4.856;2024-03-02T23:01:48;5.43;;;2.25;;
36547;SDS011;22551;52.206;4.856;2024-03-02T23:06:50;4.13;;;2.50;;
36547;SDS011;22551;52.206;4.856;2024-03-02T23:11:52;5.03;;;2.45;;
36547;SDS011;22551;52.206;4.856;2024-03-02T23:16:56;6.38;;;2.88;;
36547;SDS011;22551;52.206;4.856;2024-03-02T23:21:58;7.38;;;2.92;;
36547;SDS011;22551;52.206;4.856;2024-03-02T23:27:00;4.68;;;2.88;;
36547;SDS011;22551;52.206;4.856;2024-03-02T23:32:04;4.43;;;2.22;;
36547;SDS011;22551;52.206;4.856;2024-03-02T23:37:07;3.70;;;1.77;;
36547;SDS011;22551;52.206;4.856;2024-03-02T23:42:09;6.22;;;2.45;;
36547;SDS011;22551;52.206;4.856;2024-03-02T23:47:13;3.88;;;2.10;;
36547;SDS011;22551;52.206;4.856;2024-03-02T23:52:18;3.00;;;1.77;;
36547;SDS011;22551;52.206;4.856;2024-03-02T23:57:20;3.45;;;1.90;;
